sensor_id;sensor_type;location;lat;lon;timestamp;temperature;humidity
19610;DHT22;9952;47.122;-1.638;2022-11-30T00:02:26;4.70;99.90
19610;DHT22;9952;47.122;-1.638;2022-11-30T00:07:09;4.60;99.90
19610;DHT22;9952;47.122;-1.638;2022-11-30T00:11:49;4.50;99.90
19610;DHT22;9952;47.122;-1.638;2022-11-30T00:16:30;4.50;99.90
19610;DHT22;9952;47.122;-1.638;2022-11-30T00:21:13;4.50;99.90
19610;DHT22;9952;47.122;-1.638;2022-11-30T00:25:54;4.40;99.90
19610;DHT22;9952;47.122;-1.638;2022-11-30T00:30:35;4.40;99.90
19610;DHT22;9952;47.122;-1.638;2022-11-30T00:35:15;4.30;99.90
19610;DHT22;9952;47.122;-1.638;2022-11-30T00:39:57;4.30;99.90
19610;DHT22;9952;47.122;-1.638;2022-11-30T00:44:38;4.30;99.90
19610;DHT22;9952;47.122;-1.638;2022-11-30T00:49:18;4.30;99.90
19610;DHT22;9952;47.122;-1.638;2022-11-30T00:53:59;4.40;99.90
19610;DHT22;9952;47.122;-1.638;2022-11-30T00:58:40;4.60;99.90
19610;DHT22;9952;47.122;-1.638;2022-11-30T01:03:21;4.80;99.90
19610;DHT22;9952;47.122;-1.638;2022-11-30T01:08:04;4.90;99.90
19610;DHT22;9952;47.122;-1.638;2022-11-30T01:12:45;5.10;99.90
19610;DHT22;9952;47.122;-1.638;2022-11-30T01:17:26;5.10;99.90
19610;DHT22;9952;47.122;-1.638;2022-11-30T01:22:07;5.10;99.90
19610;DHT22;9952;47.122;-1.638;2022-11-30T01:26:48;5.10;99.90
19610;DHT22;9952;47.122;-1.638;2022-11-30T01:31:28;5.10;99.90
19610;DHT22;9952;47.122;-1.638;2022-11-30T01:36:11;5.20;99.90
19610;DHT22;9952;47.122;-1.638;2022-11-30T01:40:52;5.20;99.90
19610;DHT22;9952;47.122;-1.638;2022-11-30T01:45:33;5.20;99.90
19610;DHT22;9952;47.122;-1.638;2022-11-30T01:50:15;5.30;99.90
19610;DHT22;9952;47.122;-1.638;2022-11-30T01:55:07;5.40;99.90
19610;DHT22;9952;47.122;-1.638;2022-11-30T01:59:52;5.40;99.90
19610;DHT22;9952;47.122;-1.638;2022-11-30T02:04:35;5.30;99.90
19610;DHT22;9952;47.122;-1.638;2022-11-30T02:09:19;5.40;99.90
19610;DHT22;9952;47.122;-1.638;2022-11-30T02:29:28;5.60;99.90
19610;DHT22;9952;47.122;-1.638;2022-11-30T02:34:12;5.60;99.90
19610;DHT22;9952;47.122;-1.638;2022-11-30T02:38:55;5.70;99.90
19610;DHT22;9952;47.122;-1.638;2022-11-30T02:43:37;5.70;99.90
19610;DHT22;9952;47.122;-1.638;2022-11-30T02:48:26;5.70;99.90
19610;DHT22;9952;47.122;-1.638;2022-11-30T02:53:09;5.60;99.90
19610;DHT22;9952;47.122;-1.638;2022-11-30T02:57:50;5.60;99.90
19610;DHT22;9952;47.122;-1.638;2022-11-30T03:02:31;5.70;99.90
19610;DHT22;9952;47.122;-1.638;2022-11-30T03:07:12;5.70;99.90
19610;DHT22;9952;47.122;-1.638;2022-11-30T03:11:53;5.70;99.90
19610;DHT22;9952;47.122;-1.638;2022-11-30T03:16:36;5.70;99.90
19610;DHT22;9952;47.122;-1.638;2022-11-30T03:21:17;5.70;99.90
19610;DHT22;9952;47.122;-1.638;2022-11-30T03:25:58;5.80;99.90
19610;DHT22;9952;47.122;-1.638;2022-11-30T03:30:38;5.80;99.90
19610;DHT22;9952;47.122;-1.638;2022-11-30T03:35:20;5.90;99.90
19610;DHT22;9952;47.122;-1.638;2022-11-30T03:40:01;5.90;99.90
19610;DHT22;9952;47.122;-1.638;2022-11-30T03:44:41;5.90;99.90
19610;DHT22;9952;47.122;-1.638;2022-11-30T03:49:22;5.80;99.90
19610;DHT22;9952;47.122;-1.638;2022-11-30T03:54:03;5.80;99.90
19610;DHT22;9952;47.122;-1.638;2022-11-30T03:58:44;5.80;99.90
19610;DHT22;9952;47.122;-1.638;2022-11-30T04:03:24;5.80;99.90
19610;DHT22;9952;47.122;-1.638;2022-11-30T04:08:05;5.90;99.90
19610;DHT22;9952;47.122;-1.638;2022-11-30T04:12:46;5.90;99.90
19610;DHT22;9952;47.122;-1.638;2022-11-30T04:17:27;5.90;99.90
19610;DHT22;9952;47.122;-1.638;2022-11-30T04:22:07;6.00;99.90
19610;DHT22;9952;47.122;-1.638;2022-11-30T04:26:48;6.00;99.90
19610;DHT22;9952;47.122;-1.638;2022-11-30T04:31:29;5.90;99.90
19610;DHT22;9952;47.122;-1.638;2022-11-30T04:36:17;6.00;99.90
19610;DHT22;9952;47.122;-1.638;2022-11-30T04:40:59;6.00;99.90
19610;DHT22;9952;47.122;-1.638;2022-11-30T04:45:45;6.00;99.90
19610;DHT22;9952;47.122;-1.638;2022-11-30T04:50:26;6.00;99.90
19610;DHT22;9952;47.122;-1.638;2022-11-30T04:55:07;6.00;99.90
19610;DHT22;9952;47.122;-1.638;2022-11-30T04:59:48;6.10;99.90
19610;DHT22;9952;47.122;-1.638;2022-11-30T05:04:29;6.10;99.90
19610;DHT22;9952;47.122;-1.638;2022-11-30T05:09:10;6.10;99.90
19610;DHT22;9952;47.122;-1.638;2022-11-30T05:13:51;6.10;99.90
19610;DHT22;9952;47.122;-1.638;2022-11-30T05:18:31;6.10;99.90
19610;DHT22;9952;47.122;-1.638;2022-11-30T05:23:13;6.10;99.90
19610;DHT22;9952;47.122;-1.638;2022-11-30T05:27:53;6.20;99.90
19610;DHT22;9952;47.122;-1.638;2022-11-30T05:32:34;6.20;99.90
19610;DHT22;9952;47.122;-1.638;2022-11-30T05:37:15;6.30;99.90
19610;DHT22;9952;47.122;-1.638;2022-11-30T05:41:55;6.30;99.90
19610;DHT22;9952;47.122;-1.638;2022-11-30T05:46:36;6.30;99.90
19610;DHT22;9952;47.122;-1.638;2022-11-30T05:51:18;6.40;99.90
19610;DHT22;9952;47.122;-1.638;2022-11-30T05:56:08;6.40;99.90
19610;DHT22;9952;47.122;-1.638;2022-11-30T06:00:50;6.50;99.90
19610;DHT22;9952;47.122;-1.638;2022-11-30T06:05:33;6.50;99.90
19610;DHT22;9952;47.122;-1.638;2022-11-30T06:10:14;6.50;99.90
19610;DHT22;9952;47.122;-1.638;2022-11-30T06:14:55;6.60;99.90
19610;DHT22;9952;47.122;-1.638;2022-11-30T06:19:36;6.60;99.90
19610;DHT22;9952;47.122;-1.638;2022-11-30T06:24:17;6.70;99.90
19610;DHT22;9952;47.122;-1.638;2022-11-30T06:28:57;6.70;99.90
19610;DHT22;9952;47.122;-1.638;2022-11-30T06:33:38;6.70;99.90
19610;DHT22;9952;47.122;-1.638;2022-11-30T06:38:19;6.70;99.90
19610;DHT22;9952;47.122;-1.638;2022-11-30T06:43:00;6.80;99.90
19610;DHT22;9952;47.122;-1.638;2022-11-30T06:47:41;6.80;99.90
19610;DHT22;9952;47.122;-1.638;2022-11-30T06:52:21;6.80;99.90
19610;DHT22;9952;47.122;-1.638;2022-11-30T06:57:02;6.80;99.90
19610;DHT22;9952;47.122;-1.638;2022-11-30T07:01:43;6.80;99.90
19610;DHT22;9952;47.122;-1.638;2022-11-30T07:06:24;6.80;99.90
19610;DHT22;9952;47.122;-1.638;2022-11-30T07:11:06;6.80;99.90
19610;DHT22;9952;47.122;-1.638;2022-11-30T07:15:47;6.80;99.90
19610;DHT22;9952;47.122;-1.638;2022-11-30T07:20:28;6.80;99.90
19610;DHT22;9952;47.122;-1.638;2022-11-30T07:25:09;6.80;99.90
19610;DHT22;9952;47.122;-1.638;2022-11-30T07:30:08;6.80;99.90
19610;DHT22;9952;47.122;-1.638;2022-11-30T07:34:49;6.80;99.90
19610;DHT22;9952;47.122;-1.638;2022-11-30T07:39:30;6.80;99.90
19610;DHT22;9952;47.122;-1.638;2022-11-30T07:44:11;6.90;99.90
19610;DHT22;9952;47.122;-1.638;2022-11-30T07:48:51;6.80;99.90
19610;DHT22;9952;47.122;-1.638;2022-11-30T07:53:32;6.80;99.90
19610;DHT22;9952;47.122;-1.638;2022-11-30T07:58:13;6.90;99.90
19610;DHT22;9952;47.122;-1.638;2022-11-30T08:02:55;6.90;99.90
19610;DHT22;9952;47.122;-1.638;2022-11-30T08:07:35;6.90;99.90
19610;DHT22;9952;47.122;-1.638;2022-11-30T08:12:16;6.90;99.90
19610;DHT22;9952;47.122;-1.638;2022-11-30T08:16:57;6.80;99.90
19610;DHT22;9952;47.122;-1.638;2022-11-30T08:21:38;6.80;99.90
19610;DHT22;9952;47.122;-1.638;2022-11-30T08:26:21;6.80;99.90
19610;DHT22;9952;47.122;-1.638;2022-11-30T08:31:05;6.80;99.90
19610;DHT22;9952;47.122;-1.638;2022-11-30T08:35:46;6.80;99.90
19610;DHT22;9952;47.122;-1.638;2022-11-30T08:40:26;6.80;99.90
19610;DHT22;9952;47.122;-1.638;2022-11-30T08:45:08;6.80;99.90
19610;DHT22;9952;47.122;-1.638;2022-11-30T08:49:48;6.80;99.90
19610;DHT22;9952;47.122;-1.638;2022-11-30T08:54:29;6.80;99.90
19610;DHT22;9952;47.122;-1.638;2022-11-30T08:59:10;6.80;99.90
19610;DHT22;9952;47.122;-1.638;2022-11-30T09:03:53;6.90;99.90
19610;DHT22;9952;47.122;-1.638;2022-11-30T09:08:34;7.00;99.90
19610;DHT22;9952;47.122;-1.638;2022-11-30T09:13:15;7.10;99.90
19610;DHT22;9952;47.122;-1.638;2022-11-30T09:17:56;7.20;99.90
19610;DHT22;9952;47.122;-1.638;2022-11-30T09:22:38;7.20;99.90
19610;DHT22;9952;47.122;-1.638;2022-11-30T09:27:18;7.30;99.90
19610;DHT22;9952;47.122;-1.638;2022-11-30T09:31:59;7.40;99.90
19610;DHT22;9952;47.122;-1.638;2022-11-30T09:36:40;7.40;99.90
19610;DHT22;9952;47.122;-1.638;2022-11-30T09:51:43;7.70;99.90
19610;DHT22;9952;47.122;-1.638;2022-11-30T09:56:32;7.70;99.90
19610;DHT22;9952;47.122;-1.638;2022-11-30T10:01:18;7.80;99.90
19610;DHT22;9952;47.122;-1.638;2022-11-30T10:06:08;7.90;99.90
19610;DHT22;9952;47.122;-1.638;2022-11-30T10:11:11;8.00;99.90
19610;DHT22;9952;47.122;-1.638;2022-11-30T10:25:51;8.30;99.90
19610;DHT22;9952;47.122;-1.638;2022-11-30T10:30:35;8.40;99.90
19610;DHT22;9952;47.122;-1.638;2022-11-30T10:40:08;8.50;99.90
19610;DHT22;9952;47.122;-1.638;2022-11-30T10:45:15;8.60;99.90
19610;DHT22;9952;47.122;-1.638;2022-11-30T10:49:56;8.70;99.90
19610;DHT22;9952;47.122;-1.638;2022-11-30T10:54:38;8.80;99.90
19610;DHT22;9952;47.122;-1.638;2022-11-30T10:59:30;9.00;99.90
19610;DHT22;9952;47.122;-1.638;2022-11-30T11:04:22;9.00;99.90
19610;DHT22;9952;47.122;-1.638;2022-11-30T11:14:16;8.90;99.90
19610;DHT22;9952;47.122;-1.638;2022-11-30T11:18:57;8.70;99.90
19610;DHT22;9952;47.122;-1.638;2022-11-30T11:23:42;8.70;99.90
19610;DHT22;9952;47.122;-1.638;2022-11-30T11:28:24;8.70;99.90
19610;DHT22;9952;47.122;-1.638;2022-11-30T11:37:51;8.60;99.90
19610;DHT22;9952;47.122;-1.638;2022-11-30T11:42:53;8.60;99.90
19610;DHT22;9952;47.122;-1.638;2022-11-30T11:47:38;8.70;99.90
19610;DHT22;9952;47.122;-1.638;2022-11-30T11:52:20;8.80;99.90
19610;DHT22;9952;47.122;-1.638;2022-11-30T11:57:02;8.80;99.90
19610;DHT22;9952;47.122;-1.638;2022-11-30T12:02:08;8.80;99.90
19610;DHT22;9952;47.122;-1.638;2022-11-30T12:06:53;8.90;99.90
19610;DHT22;9952;47.122;-1.638;2022-11-30T12:11:42;9.10;99.90
19610;DHT22;9952;47.122;-1.638;2022-11-30T12:37:15;9.40;99.90
19610;DHT22;9952;47.122;-1.638;2022-11-30T12:42:08;9.50;99.90
19610;DHT22;9952;47.122;-1.638;2022-11-30T12:47:00;9.50;99.90
19610;DHT22;9952;47.122;-1.638;2022-11-30T12:52:02;9.50;99.90
19610;DHT22;9952;47.122;-1.638;2022-11-30T12:56:53;9.40;99.90
19610;DHT22;9952;47.122;-1.638;2022-11-30T13:06:36;9.60;99.90
19610;DHT22;9952;47.122;-1.638;2022-11-30T13:11:41;10.00;99.90
19610;DHT22;9952;47.122;-1.638;2022-11-30T13:16:24;10.10;99.90
19610;DHT22;9952;47.122;-1.638;2022-11-30T13:21:28;9.80;99.90
19610;DHT22;9952;47.122;-1.638;2022-11-30T13:35:54;9.90;99.90
19610;DHT22;9952;47.122;-1.638;2022-11-30T13:40:34;10.00;99.90
19610;DHT22;9952;47.122;-1.638;2022-11-30T13:45:34;10.00;99.90
19610;DHT22;9952;47.122;-1.638;2022-11-30T13:50:37;10.00;99.90
19610;DHT22;9952;47.122;-1.638;2022-11-30T14:09:58;10.10;99.90
19610;DHT22;9952;47.122;-1.638;2022-11-30T14:14:43;10.10;99.90
19610;DHT22;9952;47.122;-1.638;2022-11-30T14:19:25;10.00;99.90
19610;DHT22;9952;47.122;-1.638;2022-11-30T14:24:15;9.90;99.90
19610;DHT22;9952;47.122;-1.638;2022-11-30T14:38:54;9.60;99.90
19610;DHT22;9952;47.122;-1.638;2022-11-30T14:43:35;9.70;99.90
19610;DHT22;9952;47.122;-1.638;2022-11-30T14:48:16;9.60;99.90
19610;DHT22;9952;47.122;-1.638;2022-11-30T14:57:51;9.70;99.90
19610;DHT22;9952;47.122;-1.638;2022-11-30T15:02:35;9.70;99.90
19610;DHT22;9952;47.122;-1.638;2022-11-30T15:07:18;9.60;99.90
19610;DHT22;9952;47.122;-1.638;2022-11-30T15:11:59;9.40;99.90
19610;DHT22;9952;47.122;-1.638;2022-11-30T15:16:50;9.00;99.90
19610;DHT22;9952;47.122;-1.638;2022-11-30T15:21:34;8.90;99.90
19610;DHT22;9952;47.122;-1.638;2022-11-30T15:26:19;8.70;99.90
19610;DHT22;9952;47.122;-1.638;2022-11-30T15:31:06;8.50;99.90
19610;DHT22;9952;47.122;-1.638;2022-11-30T15:35:52;8.40;99.90
19610;DHT22;9952;47.122;-1.638;2022-11-30T15:40:33;8.20;99.90
19610;DHT22;9952;47.122;-1.638;2022-11-30T15:45:24;8.00;99.90
19610;DHT22;9952;47.122;-1.638;2022-11-30T15:50:30;8.00;99.90
19610;DHT22;9952;47.122;-1.638;2022-11-30T15:55:44;7.90;99.90
19610;DHT22;9952;47.122;-1.638;2022-11-30T16:00:26;7.70;99.90
19610;DHT22;9952;47.122;-1.638;2022-11-30T16:10:05;7.50;99.90
19610;DHT22;9952;47.122;-1.638;2022-11-30T16:14:46;7.40;99.90
19610;DHT22;9952;47.122;-1.638;2022-11-30T16:19:26;7.30;99.90
19610;DHT22;9952;47.122;-1.638;2022-11-30T16:24:13;7.30;99.90
19610;DHT22;9952;47.122;-1.638;2022-11-30T16:28:54;7.10;99.90
19610;DHT22;9952;47.122;-1.638;2022-11-30T16:33:37;7.10;99.90
19610;DHT22;9952;47.122;-1.638;2022-11-30T16:38:18;7.10;99.90
19610;DHT22;9952;47.122;-1.638;2022-11-30T16:42:59;7.00;99.90
19610;DHT22;9952;47.122;-1.638;2022-11-30T16:47:40;7.00;99.90
19610;DHT22;9952;47.122;-1.638;2022-11-30T16:52:21;6.90;99.90
19610;DHT22;9952;47.122;-1.638;2022-11-30T16:57:02;6.90;99.90
19610;DHT22;9952;47.122;-1.638;2022-11-30T17:01:47;6.90;99.90
19610;DHT22;9952;47.122;-1.638;2022-11-30T17:06:32;6.80;99.90
19610;DHT22;9952;47.122;-1.638;2022-11-30T17:11:17;6.70;99.90
19610;DHT22;9952;47.122;-1.638;2022-11-30T17:15:58;6.80;99.90
19610;DHT22;9952;47.122;-1.638;2022-11-30T17:20:39;6.70;99.90
19610;DHT22;9952;47.122;-1.638;2022-11-30T17:25:21;6.80;99.90
19610;DHT22;9952;47.122;-1.638;2022-11-30T17:30:03;6.80;99.90
19610;DHT22;9952;47.122;-1.638;2022-11-30T17:34:44;6.70;99.90
19610;DHT22;9952;47.122;-1.638;2022-11-30T17:39:25;6.60;99.90
19610;DHT22;9952;47.122;-1.638;2022-11-30T17:44:05;6.70;99.90
19610;DHT22;9952;47.122;-1.638;2022-11-30T17:48:46;6.60;99.90
19610;DHT22;9952;47.122;-1.638;2022-11-30T17:53:29;6.70;99.90
19610;DHT22;9952;47.122;-1.638;2022-11-30T17:58:09;6.80;99.90
19610;DHT22;9952;47.122;-1.638;2022-11-30T18:02:50;6.70;99.90
19610;DHT22;9952;47.122;-1.638;2022-11-30T18:07:31;6.60;99.90
19610;DHT22;9952;47.122;-1.638;2022-11-30T18:12:12;6.70;99.90
19610;DHT22;9952;47.122;-1.638;2022-11-30T18:16:53;6.70;99.90
19610;DHT22;9952;47.122;-1.638;2022-11-30T18:21:34;6.70;99.90
19610;DHT22;9952;47.122;-1.638;2022-11-30T18:26:18;6.70;99.90
19610;DHT22;9952;47.122;-1.638;2022-11-30T18:30:59;6.70;99.90
19610;DHT22;9952;47.122;-1.638;2022-11-30T18:35:40;6.80;99.90
19610;DHT22;9952;47.122;-1.638;2022-11-30T18:40:20;6.70;99.90
19610;DHT22;9952;47.122;-1.638;2022-11-30T18:45:01;6.70;99.90
19610;DHT22;9952;47.122;-1.638;2022-11-30T18:49:42;6.60;99.90
19610;DHT22;9952;47.122;-1.638;2022-11-30T18:54:23;6.50;99.90
19610;DHT22;9952;47.122;-1.638;2022-11-30T18:59:08;6.50;99.90
19610;DHT22;9952;47.122;-1.638;2022-11-30T19:03:57;6.50;99.90
19610;DHT22;9952;47.122;-1.638;2022-11-30T19:08:39;6.40;99.90
19610;DHT22;9952;47.122;-1.638;2022-11-30T19:13:20;6.40;99.90
19610;DHT22;9952;47.122;-1.638;2022-11-30T19:18:01;6.40;99.90
19610;DHT22;9952;47.122;-1.638;2022-11-30T19:22:42;6.50;99.90
19610;DHT22;9952;47.122;-1.638;2022-11-30T19:27:22;6.50;99.90
19610;DHT22;9952;47.122;-1.638;2022-11-30T19:32:03;6.50;99.90
19610;DHT22;9952;47.122;-1.638;2022-11-30T19:36:44;6.40;99.90
19610;DHT22;9952;47.122;-1.638;2022-11-30T19:41:26;6.50;99.90
19610;DHT22;9952;47.122;-1.638;2022-11-30T19:46:12;6.50;99.90
19610;DHT22;9952;47.122;-1.638;2022-11-30T19:50:53;6.50;99.90
19610;DHT22;9952;47.122;-1.638;2022-11-30T19:55:37;6.70;99.90
19610;DHT22;9952;47.122;-1.638;2022-11-30T20:00:19;6.70;99.90
19610;DHT22;9952;47.122;-1.638;2022-11-30T20:05:00;6.70;99.90
19610;DHT22;9952;47.122;-1.638;2022-11-30T20:09:41;6.70;99.90
19610;DHT22;9952;47.122;-1.638;2022-11-30T20:14:22;6.70;99.90
19610;DHT22;9952;47.122;-1.638;2022-11-30T20:19:03;6.70;99.90
19610;DHT22;9952;47.122;-1.638;2022-11-30T20:23:45;6.80;99.90
19610;DHT22;9952;47.122;-1.638;2022-11-30T20:28:26;6.80;99.90
19610;DHT22;9952;47.122;-1.638;2022-11-30T20:33:07;6.80;99.90
19610;DHT22;9952;47.122;-1.638;2022-11-30T20:37:48;6.80;99.90
19610;DHT22;9952;47.122;-1.638;2022-11-30T20:42:29;6.80;99.90
19610;DHT22;9952;47.122;-1.638;2022-11-30T20:47:09;7.00;99.90
19610;DHT22;9952;47.122;-1.638;2022-11-30T20:51:50;6.90;99.90
19610;DHT22;9952;47.122;-1.638;2022-11-30T20:56:33;7.00;99.90
19610;DHT22;9952;47.122;-1.638;2022-11-30T21:01:18;7.00;99.90
19610;DHT22;9952;47.122;-1.638;2022-11-30T21:05:59;6.90;99.90
19610;DHT22;9952;47.122;-1.638;2022-11-30T21:10:40;7.00;99.90
19610;DHT22;9952;47.122;-1.638;2022-11-30T21:15:21;6.80;99.90
19610;DHT22;9952;47.122;-1.638;2022-11-30T21:20:02;6.90;99.90
19610;DHT22;9952;47.122;-1.638;2022-11-30T21:24:43;6.90;99.90
19610;DHT22;9952;47.122;-1.638;2022-11-30T21:29:24;7.00;99.90
19610;DHT22;9952;47.122;-1.638;2022-11-30T21:34:05;6.90;99.90
19610;DHT22;9952;47.122;-1.638;2022-11-30T21:38:45;6.90;99.90
19610;DHT22;9952;47.122;-1.638;2022-11-30T21:43:28;6.90;99.90
19610;DHT22;9952;47.122;-1.638;2022-11-30T21:48:09;7.00;99.90
19610;DHT22;9952;47.122;-1.638;2022-11-30T21:52:50;7.00;99.90
19610;DHT22;9952;47.122;-1.638;2022-11-30T21:57:31;6.90;99.90
19610;DHT22;9952;47.122;-1.638;2022-11-30T22:02:12;7.00;99.90
19610;DHT22;9952;47.122;-1.638;2022-11-30T22:06:53;7.00;99.90
19610;DHT22;9952;47.122;-1.638;2022-11-30T22:11:35;7.10;99.90
19610;DHT22;9952;47.122;-1.638;2022-11-30T22:16:17;7.10;99.90
19610;DHT22;9952;47.122;-1.638;2022-11-30T22:21:07;7.10;99.90
19610;DHT22;9952;47.122;-1.638;2022-11-30T22:25:48;7.10;99.90
19610;DHT22;9952;47.122;-1.638;2022-11-30T22:30:29;7.10;99.90
19610;DHT22;9952;47.122;-1.638;2022-11-30T22:35:10;7.00;99.90
19610;DHT22;9952;47.122;-1.638;2022-11-30T22:39:50;7.00;99.90
19610;DHT22;9952;47.122;-1.638;2022-11-30T22:44:31;7.00;99.90
19610;DHT22;9952;47.122;-1.638;2022-11-30T22:49:14;7.00;99.90
19610;DHT22;9952;47.122;-1.638;2022-11-30T22:53:55;7.00;99.90
19610;DHT22;9952;47.122;-1.638;2022-11-30T22:58:36;7.00;99.90
19610;DHT22;9952;47.122;-1.638;2022-11-30T23:03:17;7.10;99.90
19610;DHT22;9952;47.122;-1.638;2022-11-30T23:07:57;7.20;99.90
19610;DHT22;9952;47.122;-1.638;2022-11-30T23:12:38;7.20;99.90
19610;DHT22;9952;47.122;-1.638;2022-11-30T23:17:19;7.20;99.90
19610;DHT22;9952;47.122;-1.638;2022-11-30T23:22:00;7.10;99.90
19610;DHT22;9952;47.122;-1.638;2022-11-30T23:26:41;7.10;99.90
19610;DHT22;9952;47.122;-1.638;2022-11-30T23:31:24;7.10;99.90
19610;DHT22;9952;47.122;-1.638;2022-11-30T23:36:06;7.10;99.90
19610;DHT22;9952;47.122;-1.638;2022-11-30T23:40:47;7.20;99.90
19610;DHT22;9952;47.122;-1.638;2022-11-30T23:45:28;7.30;99.90
19610;DHT22;9952;47.122;-1.638;2022-11-30T23:50:09;7.10;99.90
19610;DHT22;9952;47.122;-1.638;2022-11-30T23:54:50;7.20;99.90
19610;DHT22;9952;47.122;-1.638;2022-11-30T23:59:31;7.30;99.90
